Thunder radar more information blitzortung!


avis per Pluja more information rain snow radar


Visita la nostra xarxa de llocs de meteo:

Template documentation
and downloads

And another site



Rain From: 16-11-2018 00:00 Until: 09:59 warning for: Rain Level: Yellow info button

Pagina Historial Weather Underground text

Diari Resum Desembre 19, 2017 Unitats:  Mètric    Imperial   Tant
« Previous Dia
SegĂźent Dia »
Diari Setmana Mensual Anual Personalitzada
  Maxima: Minima: Media:
Temperatura: -17.8 °C -17.8 °C -14.2 °C
Punt de rosada: -17.8 °C -20.3 °C -17.8 °C
Humitat: Humidity % 55 % 63 %
Wind Speed: 0 km/h 0 km/h 3.4 km/h
RĂ fegues de vent: 0 km/h - -
Vent:- - South
Pression baro: 0 hPa 34635.4 hPa -
Precipitacions: 0 mm    
Historical Graphs
 
 
Dades de taula per Desembre 19, 2017
Temps Temperatura Punt de rosada Pression baro Vent Wind Speed RĂ fegues de vent Humitat Rainfall Rate (Hourly)
-17.8 °C -17.8 °C 0 hPa Calm     Humidity % 0 mm
00:00 -17.2 °C -19.7 °C 34774.2 hPa Calm   5.1 km/h 72 % 0 mm
00:01 -15.8 °C -19.2 °C 34635.4 hPa Calm     64 % 0 mm
00:06 -15.8 °C -19.2 °C 34635.4 hPa Calm     64 % 0 mm
00:10 -17.4 °C -19.9 °C 34774.2 hPa NE 2.6 km/h 5.1 km/h 71 % 0 mm
00:20 -17.3 °C -19.9 °C 34774.2 hPa NNW 5.1 km/h 5.1 km/h 71 % 0 mm
00:30 -17.2 °C -19.7 °C 34774.2 hPa North 2.6 km/h 7.7 km/h 72 % 0 mm
00:40 -17.1 °C -19.7 °C 34808.1 hPa NNE 2.6 km/h 7.7 km/h 71 % 0 mm
00:50 -17.1 °C -19.7 °C 34808.1 hPa Calm   5.1 km/h 71 % 0 mm
01:00 -17.1 °C -19.6 °C 34808.1 hPa ESE 2.6 km/h 5.1 km/h 72 % 0 mm
01:10 -17.2 °C -19.8 °C 34774.2 hPa Calm   2.6 km/h 71 % 0 mm
01:20 -17.4 °C -19.9 °C 34808.1 hPa West 2.6 km/h 5.1 km/h 71 % 0 mm
01:30 -17.4 °C -19.9 °C 34808.1 hPa Calm     71 % 0 mm
01:40 -17.4 °C -19.9 °C 34841.9 hPa Calm   2.6 km/h 71 % 0 mm
01:50 -17.6 °C -20.2 °C 34841.9 hPa WSW 2.6 km/h 5.1 km/h 71 % 0 mm
02:00 -17.8 °C -20.3 °C 34841.9 hPa WSW 2.6 km/h 5.1 km/h 71 % 0 mm
02:10 -17.8 °C -20.2 °C 34841.9 hPa Calm     72 % 0 mm
02:20 -17.7 °C -20.2 °C 34875.8 hPa Calm   2.6 km/h 72 % 0 mm
02:30 -17.7 °C -20.1 °C 34875.8 hPa West 5.1 km/h 5.1 km/h 73 % 0 mm
02:40 -17.6 °C -19.9 °C 34875.8 hPa Calm   2.6 km/h 73 % 0 mm
02:50 -17.3 °C -19.7 °C 34875.8 hPa West 2.6 km/h 5.1 km/h 73 % 0 mm
03:00 -17.1 °C -19.4 °C 34875.8 hPa Calm   5.1 km/h 74 % 0 mm
03:10 -16.9 °C -19.2 °C 34875.8 hPa Calm   5.1 km/h 74 % 0 mm
03:20 -16.7 °C -19 °C 34875.8 hPa WSW 2.6 km/h 2.6 km/h 74 % 0 mm
03:30 -16.3 °C -18.6 °C 34875.8 hPa Calm   2.6 km/h 74 % 0 mm
03:40 -16.1 °C -18.6 °C 34875.8 hPa SE 2.6 km/h 5.1 km/h 73 % 0 mm
03:50 -16 °C -18.7 °C 34875.8 hPa ESE 2.6 km/h 5.1 km/h 71 % 0 mm
04:00 -15.8 °C -18.6 °C 34875.8 hPa South 2.6 km/h 2.6 km/h 70 % 0 mm
06:20 -13.6 °C -17.4 °C 34899.5 hPa WSW 7.7 km/h 12.9 km/h 61 % 0 mm
06:30 -13.4 °C -17.4 °C 34899.5 hPa NNE 7.7 km/h 12.9 km/h 60 % 0 mm
06:40 -13.2 °C -17.4 °C 34899.5 hPa NNE 7.7 km/h 10.3 km/h 59 % 0 mm
07:00 -13.1 °C -17.6 °C 34875.8 hPa NE 15.6 km/h 15.6 km/h 57 % 0 mm
07:10 -12.9 °C -17.4 °C 34875.8 hPa NE 7.7 km/h 15.6 km/h 57 % 0 mm
07:20 -12.8 °C -17.4 °C 34875.8 hPa NE 7.7 km/h 10.3 km/h 56 % 0 mm
07:30 -12.6 °C -17.3 °C 34875.8 hPa ENE 7.7 km/h 7.7 km/h 56 % 0 mm
07:40 -12.4 °C -17.1 °C 34875.8 hPa ENE 5.1 km/h 7.7 km/h 56 % 0 mm
07:50 -12.4 °C -17.1 °C 34875.8 hPa ENE 2.6 km/h 7.7 km/h 56 % 0 mm
08:00 -12.3 °C -16.8 °C 34875.8 hPa NE 2.6 km/h 7.7 km/h 57 % 0 mm
08:10 -12.3 °C -16.9 °C 34841.9 hPa NE 2.6 km/h 7.7 km/h 56 % 0 mm
08:20 -12.2 °C -16.8 °C 34875.8 hPa ENE 2.6 km/h 10.3 km/h 56 % 0 mm
08:30 -12.2 °C -16.8 °C 34875.8 hPa East 7.7 km/h 7.7 km/h 56 % 0 mm
08:40 -12.1 °C -16.8 °C 34875.8 hPa East 7.7 km/h 10.3 km/h 56 % 0 mm
08:50 -11.9 °C -16.4 °C 34875.8 hPa East 2.6 km/h 5.1 km/h 57 % 0 mm
09:00 -11.7 °C -16.3 °C 34875.8 hPa South 5.1 km/h 10.3 km/h 56 % 0 mm
09:10 -11.6 °C -16.4 °C 34875.8 hPa South 5.1 km/h 5.1 km/h 55 % 0 mm
09:20 -11.6 °C -16.3 °C 34875.8 hPa Calm   5.1 km/h 56 % 0 mm
09:30 -11.5 °C -16.3 °C 34875.8 hPa SSW 2.6 km/h 5.1 km/h 55 % 0 mm
09:40 -11.6 °C -16.4 °C 34875.8 hPa SW 5.1 km/h 5.1 km/h 55 % 0 mm
09:50 -11.7 °C -16.6 °C 34875.8 hPa SSW 2.6 km/h 10.3 km/h 55 % 0 mm
10:00 -11.8 °C -16.6 °C 34875.8 hPa Calm   5.1 km/h 55 % 0 mm
10:08 -15.4 °C -18.2 °C 34899.5 hPa SSE 3.1 km/h   70 % 0 mm
10:13 -15.4 °C -18.3 °C 34899.5 hPa ESE 6 km/h 6 km/h 69 % 0 mm
10:15 -15.4 °C -18.4 °C 34899.5 hPa South 6.8 km/h 6.8 km/h 68 % 0 mm
10:20 -15.3 °C -18.3 °C 34899.5 hPa NNE 3.7 km/h 3.7 km/h 68 % 0 mm
10:21 -15.4 °C -18.4 °C 34899.5 hPa NNE 6 km/h 6 km/h 68 % 0 mm
10:25 -15.2 °C -18.2 °C 34899.5 hPa Calm     68 % 0 mm
10:26 -15 °C -17.9 °C 34899.5 hPa ESE 4.2 km/h   69 % 0 mm
10:31 -15.2 °C -18.3 °C 34899.5 hPa East 6 km/h 6 km/h 67 % 0 mm
10:33 -15.1 °C -18.2 °C 34899.5 hPa ENE 6 km/h 6 km/h 67 % 0 mm
10:34 -15.1 °C -18.2 °C 34899.5 hPa ENE 6 km/h 6 km/h 67 % 0 mm
10:39 -15.1 °C -18.2 °C 34899.5 hPa East 6.3 km/h 6.3 km/h 67 % 0 mm
10:40 -15.1 °C -18.2 °C 34899.5 hPa East 5.1 km/h 7.7 km/h 67 % 0 mm
10:45 -15.1 °C -18.2 °C 34899.5 hPa ESE 11.9 km/h 11.9 km/h 67 % 0 mm
10:50 -15.1 °C -18.3 °C 34899.5 hPa ENE 6 km/h 6 km/h 66 % 0 mm
10:51 -15.1 °C -18.3 °C 34899.5 hPa East 6.3 km/h 6.3 km/h 66 % 0 mm
10:55 -15 °C -18.2 °C 34946.9 hPa NNE 9 km/h 9 km/h 66 % 0 mm
10:56 -15 °C -18.2 °C 34946.9 hPa ENE 9 km/h 9 km/h 66 % 0 mm
11:01 -14.9 °C -18.2 °C 34946.9 hPa NE 9 km/h 9 km/h 66 % 0 mm
11:02 -14.9 °C -18.3 °C 34946.9 hPa NNE 9 km/h 9 km/h 65 % 0 mm
11:07 -14.8 °C -18.2 °C 34946.9 hPa ENE 9 km/h 9 km/h 65 % 0 mm
11:09 -14.7 °C -18.1 °C 34946.9 hPa ENE 6 km/h 6.8 km/h 65 % 0 mm
11:10 -14.6 °C -18 °C 34946.9 hPa NE 6 km/h 6 km/h 65 % 0 mm
11:14 -14.5 °C -17.9 °C 34946.9 hPa NNE 9 km/h 9 km/h 65 % 0 mm
11:19 -14.4 °C -17.9 °C 34946.9 hPa ESE 6 km/h 6 km/h 64 % 0 mm
11:24 -14.2 °C -17.7 °C 34946.9 hPa NE 6 km/h 6 km/h 64 % 0 mm
11:27 -14.2 °C -17.7 °C 34899.5 hPa NNE 6 km/h 6 km/h 64 % 0 mm
11:32 -14.3 °C -17.9 °C 34899.5 hPa ESE 11.9 km/h 11.9 km/h 63 % 0 mm
11:33 -14.2 °C -17.8 °C 34899.5 hPa ENE 9 km/h 9 km/h 63 % 0 mm
11:38 -14.2 °C -17.8 °C 34899.5 hPa ENE 11.9 km/h 11.9 km/h 63 % 0 mm
11:39 -14.2 °C -17.8 °C 34899.5 hPa ENE 9 km/h 9 km/h 63 % 0 mm
11:42 -14 °C -17.7 °C 34899.5 hPa NNE 11.9 km/h 11.9 km/h 63 % 0 mm
11:44 -14 °C -17.7 °C 34899.5 hPa West 6 km/h 6 km/h 63 % 0 mm
11:48 -13.9 °C -17.6 °C 34899.5 hPa ENE 9 km/h 9 km/h 63 % 0 mm
11:51 -13.9 °C -17.7 °C 34899.5 hPa NE 9 km/h 9 km/h 62 % 0 mm
11:56 -13.7 °C -17.5 °C 34899.5 hPa North 11.9 km/h 11.9 km/h 62 % 0 mm
11:57 -13.7 °C -17.5 °C 34899.5 hPa ENE 6 km/h 6 km/h 62 % 0 mm
11:58 -13.7 °C -17.5 °C 34899.5 hPa ENE 6.3 km/h 6.3 km/h 62 % 0 mm
12:03 -13.7 °C -17.6 °C 34899.5 hPa NE 15 km/h 15 km/h 61 % 0 mm
12:07 -13.7 °C -17.6 °C 34899.5 hPa ENE 15.6 km/h 15.6 km/h 61 % 0 mm
12:08 -13.7 °C -17.6 °C 34899.5 hPa NNE 15 km/h 15 km/h 61 % 0 mm
16:04 -11.8 °C -16.6 °C 34875.8 hPa WSW 3.1 km/h 3.1 km/h 55 % 0 mm
16:05 -11.8 °C -16.6 °C 34875.8 hPa WSW 9 km/h 9 km/h 55 % 0 mm
16:07 -11.8 °C -16.7 °C 34875.8 hPa SSW 3.1 km/h 3.7 km/h 55 % 0 mm
16:12 -11.8 °C -16.7 °C 34875.8 hPa WSW 3.1 km/h   55 % 0 mm
16:17 -11.8 °C -16.7 °C 34875.8 hPa Calm     55 % 0 mm
16:22 -11.9 °C -16.7 °C 34875.8 hPa Calm     55 % 0 mm
16:23 -11.9 °C -16.7 °C 34875.8 hPa Calm     55 % 0 mm
16:28 -11.9 °C -16.7 °C 34875.8 hPa Calm     55 % 0 mm
16:30 -11.9 °C -16.7 °C 34875.8 hPa Calm     55 % 0 mm
16:34 -11.9 °C -16.7 °C 34875.8 hPa Calm     55 % 0 mm
16:35 -11.9 °C -16.8 °C 34875.8 hPa Calm     55 % 0 mm
16:40 -11.9 °C -16.6 °C 34875.8 hPa Calm     56 % 0 mm
16:45 -12 °C -16.7 °C 34841.9 hPa West 3.1 km/h 3.1 km/h 56 % 0 mm
16:46 -12.1 °C -16.7 °C 34841.9 hPa West 3.1 km/h 3.1 km/h 56 % 0 mm
16:51 -12.1 °C -16.8 °C 34841.9 hPa NW 3.1 km/h 3.1 km/h 56 % 0 mm
16:52 -12.2 °C -16.8 °C 34841.9 hPa NW 3.1 km/h 3.1 km/h 56 % 0 mm
16:57 -12.3 °C -16.9 °C 34875.8 hPa NW 3.1 km/h 3.1 km/h 56 % 0 mm
17:02 -12.3 °C -17 °C 34875.8 hPa NW 3.1 km/h 3.1 km/h 56 % 0 mm
17:04 -12.4 °C -17.1 °C 34875.8 hPa NW 3.1 km/h 3.1 km/h 56 % 0 mm
17:09 -12.4 °C -16.9 °C 34875.8 hPa NW 3.1 km/h 3.1 km/h 57 % 0 mm
17:10 -12.4 °C -16.9 °C 34875.8 hPa NW 3.1 km/h 3.1 km/h 57 % 0 mm
17:11 -12.4 °C -16.9 °C 34875.8 hPa NW 3.1 km/h 3.1 km/h 57 % 0 mm
17:16 -12.5 °C -17 °C 34875.8 hPa NW 3.1 km/h 3.1 km/h 57 % 0 mm
17:20 -14.6 °C -18.1 °C 34946.9 hPa Calm   10.3 km/h 64 % 0 mm
17:21 -12.6 °C -17.1 °C 34875.8 hPa NW 3.1 km/h 3.1 km/h 57 % 0 mm
17:22 -12.6 °C -17.1 °C 34875.8 hPa NW 3.1 km/h 3.1 km/h 57 % 0 mm
17:23 -12.6 °C -17.1 °C 34875.8 hPa NW 3.1 km/h 3.1 km/h 57 % 0 mm
17:28 -12.6 °C -17.1 °C 34875.8 hPa NW 3.1 km/h 3.1 km/h 57 % 0 mm
17:29 -12.6 °C -17.1 °C 34875.8 hPa NW 3.1 km/h 3.1 km/h 57 % 0 mm
17:30 -14.8 °C -18.3 °C 34946.9 hPa NNE 5.1 km/h 5.1 km/h 64 % 0 mm
17:34 -12.6 °C -17 °C 34875.8 hPa NW 3.1 km/h 3.1 km/h 58 % 0 mm
17:37 -12.7 °C -17.1 °C 34875.8 hPa NW 3.1 km/h 3.1 km/h 58 % 0 mm
17:39 -12.7 °C -17.1 °C 34875.8 hPa NW 3.1 km/h 3.1 km/h 58 % 0 mm
17:40 -15 °C -18.5 °C 34946.9 hPa NNE 2.6 km/h 5.1 km/h 64 % 0 mm
17:44 -12.7 °C -17.1 °C 34899.5 hPa NW 3.1 km/h 3.1 km/h 58 % 0 mm
17:45 -12.7 °C -17.1 °C 34899.5 hPa NW 3.1 km/h 3.1 km/h 58 % 0 mm
17:50 -12.8 °C -17 °C 34899.5 hPa NW 3.1 km/h 3.1 km/h 59 % 0 mm
17:54 -12.8 °C -17 °C 34899.5 hPa NW 3.1 km/h 3.1 km/h 59 % 0 mm
17:57 -12.8 °C -17 °C 34899.5 hPa NW 3.1 km/h 3.1 km/h 59 % 0 mm
18:00 -15.3 °C -18.7 °C 34946.9 hPa NNE 2.6 km/h 2.6 km/h 65 % 0 mm
18:02 -12.8 °C -17.1 °C 34899.5 hPa NW 3.1 km/h 3.1 km/h 59 % 0 mm
18:06 -12.9 °C -17.1 °C 34899.5 hPa NW 3.1 km/h 3.1 km/h 59 % 0 mm
18:08 -12.9 °C -17.1 °C 34899.5 hPa NW 3.1 km/h 3.1 km/h 59 % 0 mm
18:10 -15.4 °C -18.6 °C 34946.9 hPa NNE 2.6 km/h 5.1 km/h 66 % 0 mm
18:13 -12.9 °C -17.1 °C 34899.5 hPa ENE 6 km/h 6 km/h 60 % 0 mm
18:14 -12.9 °C -17.1 °C 34899.5 hPa ENE 8 km/h 8 km/h 60 % 0 mm
18:17 -12.9 °C -17.1 °C 34899.5 hPa ENE 6 km/h 6.3 km/h 60 % 0 mm
18:19 -12.9 °C -17.1 °C 34899.5 hPa WNW 6 km/h 6 km/h 60 % 0 mm
18:20 -15.5 °C -18.7 °C 34899.5 hPa NNE 7.7 km/h 7.7 km/h 66 % 0 mm
18:24 -13 °C -17.1 °C 34899.5 hPa WNW 6 km/h 6 km/h 60 % 0 mm
18:25 -13 °C -17.1 °C 34899.5 hPa NNW 2.6 km/h 7.7 km/h 60 % 0 mm
18:30 -13 °C -17.1 °C 34899.5 hPa NW 2.6 km/h 5.1 km/h 60 % 0 mm
18:35 -13.1 °C -17.1 °C 34899.5 hPa WNW 6.8 km/h 6.8 km/h 60 % 0 mm
18:36 -13.1 °C -17.1 °C 34899.5 hPa WNW 6.8 km/h 6.8 km/h 60 % 0 mm
18:40 -13.1 °C -17.1 °C 34899.5 hPa West 6 km/h 6 km/h 60 % 0 mm
18:41 -13.1 °C -17.1 °C 34899.5 hPa West 3.1 km/h 3.1 km/h 60 % 0 mm
18:46 -13.1 °C -17.2 °C 34899.5 hPa NW 4.2 km/h   60 % 0 mm
18:50 -15.8 °C -18.9 °C 34946.9 hPa NW 5.1 km/h 5.1 km/h 67 % 0 mm
18:51 -13.2 °C -17.2 °C 34899.5 hPa West 3.1 km/h   60 % 0 mm
18:54 -13.2 °C -17.2 °C 34899.5 hPa NNE 4.2 km/h   60 % 0 mm
18:59 -13.2 °C -17.2 °C 34946.9 hPa WNW 4.2 km/h 4.2 km/h 60 % 0 mm
19:00 -13.2 °C -17.2 °C 34946.9 hPa WNW 4.2 km/h 4.2 km/h 60 % 0 mm
19:05 -13.2 °C -17.1 °C 34946.9 hPa WNW 4.2 km/h 4.2 km/h 61 % 0 mm
19:06 -13.2 °C -17.1 °C 34946.9 hPa WNW 4.2 km/h 4.2 km/h 61 % 0 mm
19:10 -15.9 °C -18.9 °C 34899.5 hPa Calm   5.1 km/h 68 % 0 mm
19:11 -13.2 °C -17.1 °C 34946.9 hPa WNW 4.2 km/h 4.2 km/h 61 % 0 mm
19:12 -13.2 °C -17.1 °C 34946.9 hPa WNW 4.2 km/h 4.2 km/h 61 % 0 mm
19:16 -13.2 °C -17.2 °C 34946.9 hPa Calm     61 % 0 mm
19:19 -13.2 °C -17.2 °C 34946.9 hPa NNW 3.7 km/h   61 % 0 mm
19:20 -15.9 °C -18.9 °C 34946.9 hPa Calm     68 % 0 mm
19:22 -13.3 °C -17.2 °C 34946.9 hPa NW 6 km/h   61 % 0 mm
19:26 -13.3 °C -17.3 °C 34946.9 hPa NE 6 km/h 6 km/h 61 % 0 mm
19:28 -13.3 °C -17.3 °C 34946.9 hPa NE 6 km/h 6 km/h 61 % 0 mm
19:30 -15.9 °C -18.8 °C 34946.9 hPa Calm   5.1 km/h 69 % 0 mm
19:33 -13.4 °C -17.3 °C 34946.9 hPa NE 7.6 km/h 7.6 km/h 61 % 0 mm
19:35 -13.4 °C -17.3 °C 34946.9 hPa NW 3.7 km/h 4.2 km/h 61 % 0 mm
19:37 -13.4 °C -17.3 °C 34946.9 hPa NW 3.7 km/h 4.2 km/h 61 % 0 mm
19:40 -16 °C -18.8 °C 34946.9 hPa SE 2.6 km/h 7.7 km/h 69 % 0 mm
19:42 -13.4 °C -17.4 °C 34946.9 hPa Calm   3.1 km/h 61 % 0 mm
19:44 -13.4 °C -17.4 °C 34946.9 hPa West 3.1 km/h 3.1 km/h 61 % 0 mm
19:45 -13.5 °C -17.4 °C 34946.9 hPa West 3.1 km/h 3.1 km/h 61 % 0 mm
19:49 -13.6 °C -17.4 °C 34946.9 hPa Calm     61 % 0 mm
19:50 -16 °C -18.7 °C 34946.9 hPa ENE 2.6 km/h 2.6 km/h 70 % 0 mm
19:51 -13.6 °C -17.4 °C 34946.9 hPa Calm     61 % 0 mm
19:55 -13.7 °C -17.6 °C 34946.9 hPa Calm     61 % 0 mm
19:59 -13.7 °C -17.5 °C 34946.9 hPa Calm     62 % 0 mm
20:00 -15.9 °C -18.7 °C 34946.9 hPa Calm   5.1 km/h 70 % 0 mm
20:01 -13.7 °C -17.5 °C 34946.9 hPa Calm     62 % 0 mm
20:06 -13.7 °C -17.5 °C 34946.9 hPa Calm     62 % 0 mm
20:08 -13.7 °C -17.5 °C 34946.9 hPa Calm     62 % 0 mm
20:10 -16 °C -18.8 °C 34946.9 hPa SSE 2.6 km/h 5.1 km/h 69 % 0 mm
20:13 -13.7 °C -17.5 °C 34946.9 hPa Calm     62 % 0 mm
20:15 -13.7 °C -17.4 °C 34946.9 hPa Calm     63 % 0 mm
20:20 -13.8 °C -17.6 °C 34946.9 hPa Calm     62 % 0 mm
20:21 -13.8 °C -17.6 °C 34946.9 hPa Calm     62 % 0 mm
20:26 -13.8 °C -17.5 °C 34946.9 hPa Calm   3.1 km/h 63 % 0 mm
20:30 -16 °C -18.8 °C 34946.9 hPa Calm   5.1 km/h 69 % 0 mm
20:32 -13.8 °C -17.5 °C 34946.9 hPa Calm     63 % 0 mm
20:37 -13.9 °C -17.6 °C 34946.9 hPa Calm     63 % 0 mm
20:40 -13.8 °C -17.5 °C 34946.9 hPa NW 3.1 km/h 4.2 km/h 63 % 0 mm
20:42 -13.8 °C -17.5 °C 34946.9 hPa NW 3.1 km/h 4.2 km/h 63 % 0 mm
20:47 -13.8 °C -17.5 °C 34946.9 hPa NW 3.1 km/h 4.2 km/h 63 % 0 mm
20:48 -13.8 °C -17.5 °C 34946.9 hPa NW 3.1 km/h 4.2 km/h 63 % 0 mm
20:49 -13.8 °C -17.5 °C 34946.9 hPa NW 3.1 km/h 4.2 km/h 63 % 0 mm
20:54 -13.8 °C -17.5 °C 34946.9 hPa NW 3.1 km/h 3.1 km/h 63 % 0 mm
20:55 -13.8 °C -17.5 °C 34946.9 hPa NW 3.1 km/h 3.1 km/h 63 % 0 mm
21:00 -13.9 °C -17.6 °C 34899.5 hPa Calm     63 % 0 mm
21:05 -13.9 °C -17.6 °C 34899.5 hPa ENE 5.1 km/h 7.7 km/h 63 % 0 mm
21:06 -13.9 °C -17.6 °C 34899.5 hPa ESE 6.3 km/h 6.3 km/h 63 % 0 mm
21:10 -13.9 °C -17.6 °C 34946.9 hPa NW 3.1 km/h 3.1 km/h 63 % 0 mm
21:15 -14 °C -17.7 °C 34946.9 hPa Calm     63 % 0 mm
21:17 -14 °C -17.7 °C 34946.9 hPa Calm     63 % 0 mm
21:20 -16.2 °C -18.8 °C 34899.5 hPa Calm   5.1 km/h 71 % 0 mm
21:22 -14.1 °C -17.7 °C 34946.9 hPa Calm     63 % 0 mm
21:24 -14.1 °C -17.7 °C 34946.9 hPa Calm     63 % 0 mm
21:27 -14.1 °C -17.7 °C 34946.9 hPa Calm     63 % 0 mm
21:30 -16.2 °C -18.8 °C 34899.5 hPa Calm     71 % 0 mm
21:32 -14.1 °C -17.7 °C 34946.9 hPa Calm     63 % 0 mm
21:37 -14.2 °C -17.7 °C 34946.9 hPa NNE 3.7 km/h 3.7 km/h 64 % 0 mm
21:40 -16.2 °C -18.8 °C 34946.9 hPa Calm     72 % 0 mm
21:42 -14.2 °C -17.7 °C 34946.9 hPa ENE 4.2 km/h 4.2 km/h 64 % 0 mm
21:44 -14.2 °C -17.7 °C 34946.9 hPa NNE 6.3 km/h 6.3 km/h 64 % 0 mm
21:49 -14.2 °C -17.7 °C 34946.9 hPa WNW 3.1 km/h   64 % 0 mm
21:50 -14.2 °C -17.7 °C 34946.9 hPa Calm   5.1 km/h 64 % 0 mm
21:55 -14.3 °C -17.8 °C 34946.9 hPa West 3.1 km/h   64 % 0 mm
22:00 -14.3 °C -17.9 °C 34967.2 hPa North 3.1 km/h 3.7 km/h 63 % 0 mm
22:02 -14.3 °C -17.8 °C 34967.2 hPa Calm     64 % 0 mm
22:03 -14.3 °C -17.8 °C 34967.2 hPa NE 6.3 km/h 6.3 km/h 64 % 0 mm
22:07 -14.3 °C -17.8 °C 34967.2 hPa NE 6.3 km/h 6.3 km/h 64 % 0 mm
22:09 -14.3 °C -17.8 °C 34967.2 hPa NE 6.3 km/h 6.3 km/h 64 % 0 mm
22:10 -16.6 °C -19.1 °C 34946.9 hPa Calm   2.6 km/h 72 % 0 mm
22:14 -14.3 °C -17.8 °C 34946.9 hPa NNE 3.1 km/h 5.1 km/h 64 % 0 mm
22:16 -14.3 °C -17.8 °C 34946.9 hPa NNW 3.1 km/h 3.1 km/h 64 % 0 mm
22:18 -14.3 °C -17.8 °C 34946.9 hPa North 4.2 km/h   64 % 0 mm
22:20 -16.6 °C -19.2 °C 34946.9 hPa Calm     71 % 0 mm
22:21 -14.3 °C -17.8 °C 34946.9 hPa Calm     64 % 0 mm
22:25 -14.3 °C -17.8 °C 34946.9 hPa North 6.3 km/h 6.3 km/h 64 % 0 mm
22:27 -14.3 °C -17.8 °C 34946.9 hPa NNE 6 km/h 6 km/h 64 % 0 mm
22:30 -16.6 °C -19.1 °C 34946.9 hPa Calm   2.6 km/h 72 % 0 mm
22:32 -14.4 °C -17.9 °C 34946.9 hPa Calm     64 % 0 mm
22:37 -14.4 °C -17.9 °C 34946.9 hPa Calm     64 % 0 mm
22:38 -14.4 °C -17.9 °C 34946.9 hPa ENE 2.3 km/h   64 % 0 mm
22:40 -16.6 °C -19 °C 34899.5 hPa West 2.6 km/h 2.6 km/h 73 % 0 mm
22:43 -14.4 °C -17.9 °C 34946.9 hPa NE 3.1 km/h   64 % 0 mm
22:48 -14.4 °C -17.9 °C 34946.9 hPa Calm   2.3 km/h 64 % 0 mm
22:50 -16.7 °C -19.2 °C 34899.5 hPa NW 2.6 km/h 2.6 km/h 72 % 0 mm
22:53 -14.4 °C -17.9 °C 34946.9 hPa NE 3.1 km/h   64 % 0 mm
22:54 -14.4 °C -17.9 °C 34946.9 hPa Calm     64 % 0 mm
22:57 -14.4 °C -17.9 °C 34946.9 hPa Calm     64 % 0 mm
23:00 -14.4 °C -17.9 °C 34946.9 hPa Calm     64 % 0 mm
23:05 -14.4 °C -17.9 °C 34946.9 hPa Calm     64 % 0 mm
23:10 -14.4 °C -17.9 °C 34946.9 hPa Calm     64 % 0 mm
23:11 -14.4 °C -17.9 °C 34946.9 hPa Calm     64 % 0 mm
23:16 -14.4 °C -17.9 °C 34946.9 hPa Calm     64 % 0 mm
23:20 -16.6 °C -19 °C 34899.5 hPa Calm     73 % 0 mm
23:21 -14.4 °C -17.9 °C 34946.9 hPa Calm     64 % 0 mm
23:22 -14.4 °C -17.9 °C 34946.9 hPa Calm     64 % 0 mm
23:27 -14.4 °C -17.9 °C 34946.9 hPa Calm     64 % 0 mm
23:29 -14.4 °C -17.9 °C 34946.9 hPa Calm     64 % 0 mm
23:30 -16.8 °C -19.1 °C 34899.5 hPa North 2.6 km/h 5.1 km/h 74 % 0 mm
23:32 -14.4 °C -17.9 °C 34946.9 hPa Calm     64 % 0 mm
23:34 -14.4 °C -17.9 °C 34946.9 hPa Calm     64 % 0 mm
23:39 -14.4 °C -17.9 °C 34946.9 hPa Calm     64 % 0 mm
23:40 -17 °C -19.4 °C 34899.5 hPa NE 5.1 km/h 5.1 km/h 73 % 0 mm
23:43 -14.4 °C -17.9 °C 34946.9 hPa Calm     64 % 0 mm
23:44 -14.4 °C -17.9 °C 34946.9 hPa Calm     64 % 0 mm
23:48 -14.4 °C -17.9 °C 34946.9 hPa Calm     64 % 0 mm
23:50 -14.4 °C -17.9 °C 34946.9 hPa Calm     64 % 0 mm
23:55 -14.4 °C -17.9 °C 34946.9 hPa Calm     64 % 0 mm
23:56 -14.4 °C -17.9 °C 34946.9 hPa Calm     64 % 0 mm
Meteo Sesrovires
Elogis d' Weather Underground - 1.75 mb

Guio original per  Jim McMurry - jmcmurry@mwt.net Adaptat per a la plantilla per  Wim van der Kuil - Leuven-Template.eu

Trobareu la nostra informacio del temps tambe a:

Weather Underground

AWEKAS